Time,TemperatureF,DewpointF,PressureIn,WindDirection,WindDirectionDegrees,WindSpeedMPH,WindSpeedGustMPH,Humidity,HourlyPrecipIn,Conditions,Clouds,dailyrainin,SoftwareType,DateUTC
2013-09-02 07:24:00,51.9,49.3,29.28,NE,45,0.0,0.0,91,0.02,,,0.00,WUHU216HW,2013-09-02 15:24:00,
2013-09-02 07:29:00,51.9,49.3,29.29,NE,45,0.0,0.0,91,0.02,,,0.00,WUHU216HW,2013-09-02 15:29:00,
2013-09-02 07:34:00,51.9,49.3,29.29,NE,45,0.0,0.0,91,0.02,,,0.00,WUHU216HW,2013-09-02 15:34:00,
2013-09-02 07:39:00,51.9,49.3,29.29,NE,45,0.0,0.0,91,0.00,,,0.00,WUHU216HW,2013-09-02 15:39:00,
2013-09-02 07:44:00,51.9,49.3,29.29,NE,45,0.0,0.0,91,0.00,,,0.00,WUHU216HW,2013-09-02 15:44:00,
2013-09-02 07:49:00,51.9,49.3,29.29,NE,45,0.0,0.0,91,0.00,,,0.00,WUHU216HW,2013-09-02 15:49:00,
2013-09-02 07:54:00,51.9,49.6,29.29,NE,45,0.0,0.0,92,0.00,,,0.00,WUHU216HW,2013-09-02 15:54:00,
2013-09-02 07:59:00,52.1,49.8,29.29,NE,45,0.0,0.0,92,0.00,,,0.00,WUHU216HW,2013-09-02 15:59:00,
2013-09-02 08:04:00,52.1,49.8,29.29,NE,45,0.0,0.0,92,0.00,,,0.00,WUHU216HW,2013-09-02 16:04:00,
2013-09-02 08:09:00,52.3,50.0,29.29,NE,45,0.0,0.0,92,0.00,,,0.00,WUHU216HW,2013-09-02 16:09:00,
2013-09-02 08:14:00,52.3,50.0,29.29,NE,45,0.0,0.0,92,0.00,,,0.00,WUHU216HW,2013-09-02 16:14:00,
2013-09-02 08:19:00,52.3,50.0,29.29,NE,45,0.0,0.0,92,0.00,,,0.00,WUHU216HW,2013-09-02 16:19:00,
2013-09-02 08:24:00,52.3,50.0,29.29,NE,45,0.0,0.0,92,0.00,,,0.00,WUHU216HW,2013-09-02 16:24:00,
2013-09-02 08:29:00,52.3,50.0,29.28,NE,45,0.0,0.0,92,0.00,,,0.00,WUHU216HW,2013-09-02 16:29:00,
2013-09-02 08:35:00,52.3,50.0,29.28,NE,45,0.0,0.0,92,0.00,,,0.00,WUHU216HW,2013-09-02 16:35:00,
2013-09-02 08:40:00,52.5,50.2,29.28,NE,45,0.0,0.0,92,0.00,,,0.00,WUHU216HW,2013-09-02 16:40:00,
2013-09-02 08:45:00,52.5,50.2,29.28,NE,45,0.0,0.0,92,0.00,,,0.00,WUHU216HW,2013-09-02 16:45:00,
2013-09-02 08:50:00,52.7,50.3,29.27,NE,45,0.0,0.2,92,0.00,,,0.00,WUHU216HW,2013-09-02 16:50:00,
2013-09-02 08:55:00,52.8,50.5,29.28,NE,45,0.0,1.3,92,0.00,,,0.00,WUHU216HW,2013-09-02 16:55:00,
2013-09-02 09:00:00,52.8,50.5,29.28,NE,45,0.0,1.3,92,0.00,,,0.00,WUHU216HW,2013-09-02 17:00:00,
2013-09-02 09:05:00,53.2,50.9,29.28,NE,45,0.0,0.0,92,0.00,,,0.00,WUHU216HW,2013-09-02 17:05:00,
2013-09-02 09:10:00,53.4,51.1,29.27,NE,45,0.0,0.0,92,0.00,,,0.00,WUHU216HW,2013-09-02 17:10:00,
2013-09-02 09:15:00,53.4,51.1,29.27,NE,45,0.0,0.0,92,0.00,,,0.00,WUHU216HW,2013-09-02 17:15:00,
2013-09-02 09:20:00,53.4,51.1,29.27,NE,45,0.0,0.0,92,0.00,,,0.00,WUHU216HW,2013-09-02 17:20:00,
2013-09-02 09:25:00,53.7,51.4,29.27,NE,45,0.0,0.0,92,0.00,,,0.00,WUHU216HW,2013-09-02 17:25:00,
2013-09-02 09:30:00,53.7,51.4,29.27,NE,45,0.0,0.0,92,0.00,,,0.00,WUHU216HW,2013-09-02 17:30:00,
2013-09-02 09:35:00,53.9,51.6,29.27,NE,45,0.0,0.0,92,0.00,,,0.00,WUHU216HW,2013-09-02 17:35:00,
2013-09-02 09:40:00,54.1,51.8,29.27,NE,45,0.0,0.0,92,0.00,,,0.00,WUHU216HW,2013-09-02 17:40:00,
2013-09-02 09:45:00,54.3,52.0,29.27,NE,45,0.0,0.0,92,0.00,,,0.00,WUHU216HW,2013-09-02 17:45:00,
2013-09-02 09:50:00,54.5,52.1,29.27,NE,45,0.0,0.0,92,0.00,,,0.00,WUHU216HW,2013-09-02 17:50:00,
2013-09-02 09:55:00,54.6,52.3,29.27,NE,45,0.0,0.0,92,0.00,,,0.00,WUHU216HW,2013-09-02 17:55:00,
2013-09-02 10:00:00,55.0,53.0,29.27,NE,45,0.0,0.0,93,0.00,,,0.00,WUHU216HW,2013-09-02 18:00:00,
2013-09-02 10:05:00,55.5,53.5,29.26,NE,45,0.0,0.0,93,0.00,,,0.00,WUHU216HW,2013-09-02 18:05:00,
2013-09-02 10:10:00,55.9,53.7,29.26,NNE,23,0.0,0.0,93,0.00,,,0.00,WUHU216HW,2013-09-02 18:10:00,
2013-09-02 10:15:00,56.1,53.8,29.26,NNE,23,0.0,0.0,92,0.00,,,0.00,WUHU216HW,2013-09-02 18:15:00,
2013-09-02 10:20:00,56.4,54.1,29.26,NNE,23,0.0,0.0,92,0.00,,,0.00,WUHU216HW,2013-09-02 18:20:00,
2013-09-02 10:25:00,56.4,54.5,29.25,NNE,23,0.0,0.0,92,0.00,,,0.00,WUHU216HW,2013-09-02 18:25:00,
2013-09-02 10:30:00,57.0,54.7,29.25,NNE,23,0.0,0.0,92,0.00,,,0.00,WUHU216HW,2013-09-02 18:30:00,
2013-09-02 10:35:00,57.3,55.0,29.25,NNE,23,0.0,0.0,92,0.00,,,0.00,WUHU216HW,2013-09-02 18:35:00,
2013-09-02 10:40:00,57.9,55.4,29.26,NNE,23,0.0,0.0,92,0.00,,,0.00,WUHU216HW,2013-09-02 18:40:00,
2013-09-02 10:45:00,58.4,56.1,29.26,NNE,23,0.0,0.0,92,0.00,,,0.00,WUHU216HW,2013-09-02 18:45:00,
2013-09-02 10:50:00,58.8,56.5,29.25,NNE,23,0.0,0.0,92,0.00,,,0.00,WUHU216HW,2013-09-02 18:50:00,
2013-09-02 10:55:00,58.8,55.9,29.25,NNE,23,0.0,0.0,91,0.00,,,0.00,WUHU216HW,2013-09-02 18:55:00,
2013-09-02 11:00:00,58.8,55.9,29.25,NNE,23,0.0,0.0,90,0.00,,,0.00,WUHU216HW,2013-09-02 19:00:00,
2013-09-02 11:05:00,58.8,55.9,29.25,North,0,0.0,0.0,90,0.00,,,0.00,WUHU216HW,2013-09-02 19:05:00,
2013-09-02 11:10:00,59.3,56.1,29.25,West,270,0.0,0.8,89,0.00,,,0.00,WUHU216HW,2013-09-02 19:10:00,
2013-09-02 11:15:00,59.7,56.1,29.25,West,270,0.0,0.8,88,0.00,,,0.00,WUHU216HW,2013-09-02 19:15:00,
2013-09-02 11:20:00,60.0,56.5,29.25,WNW,293,0.0,0.0,88,0.00,,,0.00,WUHU216HW,2013-09-02 19:20:00,
2013-09-02 11:25:00,60.6,56.5,29.25,WNW,293,0.0,0.0,87,0.00,,,0.00,WUHU216HW,2013-09-02 19:25:00,
2013-09-02 11:30:00,60.9,57.4,29.25,WNW,293,0.0,0.0,88,0.00,,,0.00,WUHU216HW,2013-09-02 19:30:00,
2013-09-02 11:35:00,61.1,57.2,29.25,WNW,293,0.0,0.0,87,0.00,,,0.00,WUHU216HW,2013-09-02 19:35:00,
2013-09-02 11:40:00,61.3,57.4,29.25,WNW,293,0.0,0.0,87,0.00,,,0.00,WUHU216HW,2013-09-02 19:40:00,
2013-09-02 11:45:00,61.3,57.1,29.25,WNW,293,0.0,0.0,86,0.00,,,0.00,WUHU216HW,2013-09-02 19:45:00,
2013-09-02 11:50:00,61.1,56.6,29.24,WNW,293,0.0,0.0,85,0.00,,,0.00,WUHU216HW,2013-09-02 19:50:00,
2013-09-02 11:55:00,60.9,56.9,29.25,WNW,293,0.0,0.0,86,0.00,,,0.00,WUHU216HW,2013-09-02 19:55:00,
2013-09-02 12:00:00,60.9,56.7,29.25,WNW,293,0.0,0.0,86,0.00,,,0.00,WUHU216HW,2013-09-02 20:00:00,
2013-09-02 12:05:00,60.9,56.7,29.25,WNW,293,0.0,0.0,86,0.00,,,0.00,WUHU216HW,2013-09-02 20:05:00,
2013-09-02 12:10:00,60.9,56.7,29.26,WNW,293,0.0,0.0,86,0.00,,,0.00,WUHU216HW,2013-09-02 20:10:00,
2013-09-02 12:15:00,60.9,56.7,29.26,WNW,293,0.0,0.0,86,0.00,,,0.00,WUHU216HW,2013-09-02 20:15:00,
2013-09-02 12:20:00,60.8,56.6,29.25,WNW,293,0.0,0.0,86,0.00,,,0.00,WUHU216HW,2013-09-02 20:20:00,
2013-09-02 12:25:00,60.6,56.1,29.25,WNW,293,0.0,0.0,85,0.00,,,0.00,WUHU216HW,2013-09-02 20:25:00,
2013-09-02 12:30:00,60.6,56.1,29.26,WNW,293,0.0,0.0,85,0.00,,,0.00,WUHU216HW,2013-09-02 20:30:00,
2013-09-02 12:35:00,60.6,56.4,29.26,WNW,293,0.0,0.0,86,0.00,,,0.00,WUHU216HW,2013-09-02 20:35:00,
2013-09-02 12:40:00,60.4,56.2,29.26,WNW,293,0.0,0.0,86,0.00,,,0.00,WUHU216HW,2013-09-02 20:40:00,
2013-09-02 12:45:00,60.0,55.9,29.26,West,270,0.0,0.0,86,0.00,,,0.00,WUHU216HW,2013-09-02 20:45:00,
2013-09-02 12:50:00,59.9,56.0,29.26,West,270,0.0,0.0,87,0.00,,,0.00,WUHU216HW,2013-09-02 20:50:00,
2013-09-02 12:55:00,59.7,55.8,29.26,West,270,0.0,0.0,87,0.00,,,0.00,WUHU216HW,2013-09-02 20:55:00,
2013-09-02 13:02:00,59.5,55.6,29.26,West,270,0.0,0.0,87,0.00,,,0.00,WUHU216HW,2013-09-02 21:02:00,
2013-09-02 13:07:00,59.5,55.6,29.26,West,270,0.0,0.0,87,0.00,,,0.00,WUHU216HW,2013-09-02 21:07:00,
2013-09-02 13:12:00,59.5,55.6,29.26,West,270,0.0,0.0,87,0.00,,,0.00,WUHU216HW,2013-09-02 21:12:00,
2013-09-02 13:17:00,59.5,55.6,29.26,West,270,0.0,0.0,87,0.02,,,0.02,WUHU216HW,2013-09-02 21:17:00,
2013-09-02 13:22:00,59.7,56.1,29.25,West,270,0.0,0.0,88,0.02,,,0.02,WUHU216HW,2013-09-02 21:22:00,
2013-09-02 13:27:00,60.0,56.5,29.25,West,270,0.0,0.0,88,0.02,,,0.02,WUHU216HW,2013-09-02 21:27:00,
2013-09-02 13:32:00,60.4,56.5,29.25,West,270,0.0,0.0,87,0.02,,,0.02,WUHU216HW,2013-09-02 21:32:00,
2013-09-02 13:37:00,60.6,57.0,29.24,WNW,293,0.0,0.0,88,0.02,,,0.02,WUHU216HW,2013-09-02 21:37:00,
2013-09-02 13:42:00,60.9,57.0,29.24,WNW,293,0.0,0.0,88,0.02,,,0.02,WUHU216HW,2013-09-02 21:42:00,
2013-09-02 13:47:00,60.9,57.1,29.24,WNW,293,0.0,0.0,87,0.02,,,0.02,WUHU216HW,2013-09-02 21:47:00,
2013-09-02 13:52:00,60.6,56.7,29.24,WNW,293,0.0,0.0,87,0.02,,,0.02,WUHU216HW,2013-09-02 21:52:00,
2013-09-02 13:57:00,60.6,56.4,29.24,WNW,293,0.0,0.0,86,0.02,,,0.02,WUHU216HW,2013-09-02 21:57:00,
2013-09-02 14:02:00,60.6,56.7,29.23,WNW,293,0.0,0.0,87,0.02,,,0.02,WUHU216HW,2013-09-02 22:02:00,
2013-09-02 14:07:00,60.9,57.1,29.23,WNW,293,0.0,0.0,87,0.02,,,0.02,WUHU216HW,2013-09-02 22:07:00,
2013-09-02 14:12:00,61.5,57.6,29.23,WNW,293,0.0,0.0,87,0.02,,,0.02,WUHU216HW,2013-09-02 22:12:00,
2013-09-02 14:17:00,61.5,57.3,29.22,WNW,293,0.0,0.0,86,0.00,,,0.02,WUHU216HW,2013-09-02 22:17:00,
2013-09-02 14:22:00,61.8,57.3,29.22,WNW,293,0.0,0.0,85,0.00,,,0.02,WUHU216HW,2013-09-02 22:22:00,
2013-09-02 14:27:00,61.8,57.3,29.22,WNW,293,0.0,0.0,85,0.00,,,0.02,WUHU216HW,2013-09-02 22:27:00,
2013-09-02 14:32:00,62.0,57.1,29.21,NNW,338,0.0,1.1,84,0.00,,,0.02,WUHU216HW,2013-09-02 22:32:00,
2013-09-02 14:37:00,62.0,57.1,29.22,NNW,338,0.0,1.1,84,0.00,,,0.02,WUHU216HW,2013-09-02 22:37:00,
2013-09-02 14:42:00,62.2,57.3,29.22,NNW,338,0.0,0.0,84,0.00,,,0.02,WUHU216HW,2013-09-02 22:42:00,
2013-09-02 14:47:00,62.2,57.3,29.22,NNW,338,0.0,0.0,84,0.00,,,0.02,WUHU216HW,2013-09-02 22:47:00,
2013-09-02 14:52:00,62.2,57.6,29.22,NNW,338,0.0,0.0,85,0.00,,,0.02,WUHU216HW,2013-09-02 22:52:00,
2013-09-02 14:57:00,62.2,57.3,29.22,NNW,338,0.0,0.0,84,0.00,,,0.02,WUHU216HW,2013-09-02 22:57:00,
2013-09-02 15:02:00,61.8,56.9,29.22,WSW,248,0.0,0.0,84,0.00,,,0.02,WUHU216HW,2013-09-02 23:02:00,
2013-09-02 15:07:00,61.8,56.9,29.23,WSW,248,0.0,0.0,84,0.00,,,0.02,WUHU216HW,2013-09-02 23:07:00,
2013-09-02 15:12:00,61.7,56.6,29.23,WSW,248,0.0,0.0,84,0.00,,,0.02,WUHU216HW,2013-09-02 23:12:00,
2013-09-02 15:17:00,61.5,56.6,29.23,WSW,248,0.0,0.0,84,0.00,,,0.02,WUHU216HW,2013-09-02 23:17:00,
2013-09-02 15:20:00,61.3,56.4,29.23,WSW,248,0.0,0.0,84,0.00,,,0.02,WUHU216HW,2013-09-02 23:20:00,
2013-09-02 15:22:00,61.3,56.4,29.23,WSW,248,0.0,0.0,84,0.00,,,0.02,WUHU216HW,2013-09-02 23:22:00,
2013-09-02 15:28:00,61.3,56.4,29.23,WSW,248,0.0,0.0,84,0.00,,,0.02,WUHU216HW,2013-09-02 23:28:00,
2013-09-02 15:33:00,60.9,56.4,29.23,SW,225,0.0,0.0,85,0.00,,,0.02,WUHU216HW,2013-09-02 23:33:00,
2013-09-02 15:38:00,60.6,56.4,29.23,SW,225,0.0,0.0,86,0.00,,,0.02,WUHU216HW,2013-09-02 23:38:00,
2013-09-02 15:44:00,60.2,56.0,29.23,SW,225,0.0,0.0,86,0.00,,,0.02,WUHU216HW,2013-09-02 23:44:00,
2013-09-02 15:49:00,60.0,56.2,29.24,West,270,0.0,0.0,87,0.02,,,0.04,WUHU216HW,2013-09-02 23:49:00,
2013-09-02 15:54:00,59.5,55.6,29.23,West,270,0.0,0.0,87,0.02,,,0.04,WUHU216HW,2013-09-02 23:54:00,
2013-09-02 15:59:00,59.1,55.3,29.24,West,270,0.0,0.0,87,0.02,,,0.04,WUHU216HW,2013-09-02 23:59:00,
2013-09-02 16:04:00,58.8,54.9,29.24,West,270,0.0,0.6,87,0.02,,,0.04,WUHU216HW,2013-09-03 00:04:00,
2013-09-02 16:09:00,58.6,54.7,29.24,WSW,248,0.0,0.6,87,0.02,,,0.04,WUHU216HW,2013-09-03 00:09:00,
2013-09-02 16:14:00,58.2,54.4,29.24,WSW,248,0.0,0.0,87,0.02,,,0.04,WUHU216HW,2013-09-03 00:14:00,
2013-09-02 16:19:00,57.9,54.3,29.25,NW,315,1.7,1.7,88,0.04,,,0.06,WUHU216HW,2013-09-03 00:19:00,
2013-09-02 16:24:00,57.7,54.2,29.24,NW,315,0.0,1.7,88,0.04,,,0.06,WUHU216HW,2013-09-03 00:24:00,
2013-09-02 16:29:00,57.5,54.0,29.25,SW,225,0.0,1.7,88,0.04,,,0.06,WUHU216HW,2013-09-03 00:29:00,
2013-09-02 16:34:00,57.0,53.4,29.24,WNW,293,2.6,3.1,88,0.06,,,0.08,WUHU216HW,2013-09-03 00:34:00,
2013-09-02 16:39:00,56.8,53.3,29.25,WNW,293,0.0,3.1,88,0.04,,,0.08,WUHU216HW,2013-09-03 00:39:00,
2013-09-02 16:44:00,56.8,53.3,29.25,WNW,293,0.0,2.6,88,0.04,,,0.08,WUHU216HW,2013-09-03 00:44:00,
2013-09-02 16:50:00,56.4,53.2,29.24,WNW,293,0.0,0.0,89,0.04,,,0.08,WUHU216HW,2013-09-03 00:50:00,
2013-09-02 16:55:00,56.3,53.0,29.24,NNW,338,2.4,2.4,89,0.04,,,0.08,WUHU216HW,2013-09-03 00:55:00,
2013-09-02 17:01:00,56.1,52.9,29.24,NW,315,0.0,2.4,89,0.04,,,0.08,WUHU216HW,2013-09-03 01:01:00,
2013-09-02 17:06:00,55.9,52.7,29.24,NNW,338,0.0,2.6,89,0.04,,,0.08,WUHU216HW,2013-09-03 01:06:00,
2013-09-02 17:11:00,55.7,52.5,29.24,North,0,1.1,2.6,89,0.04,,,0.08,WUHU216HW,2013-09-03 01:11:00,
2013-09-02 17:16:00,55.5,52.7,29.24,NNE,23,4.0,4.0,90,0.02,,,0.08,WUHU216HW,2013-09-03 01:16:00,
2013-09-02 17:21:00,55.5,52.7,29.24,North,0,0.8,4.0,90,0.02,,,0.08,WUHU216HW,2013-09-03 01:21:00,
2013-09-02 17:27:00,55.2,52.3,29.24,NNW,338,0.4,2.0,90,0.02,,,0.08,WUHU216HW,2013-09-03 01:27:00,
2013-09-02 17:32:00,55.2,52.3,29.24,NW,315,2.9,2.9,90,0.00,,,0.08,WUHU216HW,2013-09-03 01:32:00,
2013-09-02 17:37:00,55.2,52.3,29.24,NW,315,1.3,2.9,90,0.00,,,0.08,WUHU216HW,2013-09-03 01:37:00,
2013-09-02 17:43:00,55.0,52.1,29.24,NNW,338,0.4,2.9,90,0.02,,,0.10,WUHU216HW,2013-09-03 01:43:00,
2013-09-02 17:44:00,55.0,52.1,29.24,NNW,338,0.4,2.9,90,0.02,,,0.10,WUHU216HW,2013-09-03 01:44:00,
2013-09-02 17:48:00,55.0,52.1,29.24,NNW,338,0.4,2.9,90,0.02,,,0.10,WUHU216HW,2013-09-03 01:48:00,
2013-09-02 17:55:00,54.8,51.9,29.25,North,0,2.9,2.9,90,0.02,,,0.10,WUHU216HW,2013-09-03 01:55:00,
2013-09-02 18:00:00,54.6,51.8,29.24,WNW,293,0.0,2.2,90,0.02,,,0.10,WUHU216HW,2013-09-03 02:00:00,
2013-09-02 18:05:00,54.5,51.9,29.24,WNW,293,0.0,1.5,91,0.02,,,0.10,WUHU216HW,2013-09-03 02:05:00,
2013-09-02 18:10:00,54.3,51.7,29.24,WNW,293,1.1,1.5,91,0.02,,,0.10,WUHU216HW,2013-09-03 02:10:00,
2013-09-02 18:16:00,54.5,51.9,29.24,WNW,293,0.0,1.1,91,0.02,,,0.10,WUHU216HW,2013-09-03 02:16:00,
2013-09-02 18:22:00,54.3,51.7,29.23,NW,315,0.0,0.0,91,0.02,,,0.10,WUHU216HW,2013-09-03 02:22:00,
2013-09-02 18:27:00,54.3,51.7,29.23,NNW,338,0.0,0.6,91,0.04,,,0.12,WUHU216HW,2013-09-03 02:27:00,
2013-09-02 18:32:00,54.3,51.7,29.23,NNW,338,0.0,0.6,91,0.04,,,0.12,WUHU216HW,2013-09-03 02:32:00,
2013-09-02 18:37:00,54.1,51.5,29.23,NNW,338,0.0,0.0,91,0.06,,,0.14,WUHU216HW,2013-09-03 02:37:00,
2013-09-02 18:42:00,53.9,51.3,29.23,NNW,338,0.0,0.0,91,0.04,,,0.14,WUHU216HW,2013-09-03 02:42:00,
2013-09-02 18:47:00,54.1,51.5,29.23,NNW,338,0.0,0.0,91,0.04,,,0.14,WUHU216HW,2013-09-03 02:47:00,
2013-09-02 18:52:00,53.9,51.3,29.23,NNW,338,0.0,0.0,91,0.04,,,0.14,WUHU216HW,2013-09-03 02:52:00,
2013-09-02 18:57:00,53.9,51.3,29.21,NNE,23,0.8,0.8,91,0.04,,,0.14,WUHU216HW,2013-09-03 02:57:00,
2013-09-02 19:02:00,53.7,51.1,29.19,ENE,68,3.3,3.3,91,0.06,,,0.16,WUHU216HW,2013-09-03 03:02:00,
2013-09-02 19:07:00,53.7,51.1,29.18,NNE,23,2.0,3.3,91,0.06,,,0.16,WUHU216HW,2013-09-03 03:07:00,
2013-09-02 19:12:00,53.4,50.8,29.16,ENE,68,0.8,3.3,91,0.06,,,0.16,WUHU216HW,2013-09-03 03:12:00,
2013-09-02 19:17:00,53.4,50.8,29.15,NE,45,2.4,2.4,91,0.06,,,0.16,WUHU216HW,2013-09-03 03:17:00,
2013-09-02 19:22:00,53.2,50.9,29.16,NE,45,0.0,7.1,92,0.04,,,0.16,WUHU216HW,2013-09-03 03:22:00,
2013-09-02 19:27:00,53.2,50.9,29.16,ENE,68,0.0,7.1,92,0.04,,,0.16,WUHU216HW,2013-09-03 03:27:00,
2013-09-02 19:32:00,52.8,50.2,29.16,SSE,158,1.5,6.9,91,0.02,,,0.16,WUHU216HW,2013-09-03 03:32:00,
2013-09-02 19:37:00,52.7,50.1,29.15,East,90,0.0,1.5,91,0.02,,,0.16,WUHU216HW,2013-09-03 03:37:00,
2013-09-02 19:42:00,52.3,49.7,29.15,East,90,0.0,1.5,91,0.02,,,0.16,WUHU216HW,2013-09-03 03:42:00,
2013-09-02 19:47:00,52.3,49.7,29.16,ESE,113,0.0,0.0,91,0.02,,,0.16,WUHU216HW,2013-09-03 03:47:00,
2013-09-02 19:52:00,52.3,49.7,29.16,East,90,0.0,0.0,91,0.02,,,0.16,WUHU216HW,2013-09-03 03:52:00,
2013-09-02 19:57:00,52.1,49.5,29.16,ENE,68,0.0,0.0,91,0.00,,,0.16,WUHU216HW,2013-09-03 03:57:00,
2013-09-02 20:01:00,51.9,49.3,29.15,ENE,68,0.0,0.0,91,0.00,,,0.16,WUHU216HW,2013-09-03 04:01:00,
2013-09-02 20:02:00,51.9,49.3,29.16,ENE,68,0.0,0.0,91,0.00,,,0.16,WUHU216HW,2013-09-03 04:02:00,
2013-09-02 20:07:00,51.9,49.3,29.16,NW,315,3.3,3.3,91,0.00,,,0.16,WUHU216HW,2013-09-03 04:07:00,
2013-09-02 20:12:00,51.8,49.2,29.16,WNW,293,0.0,3.3,91,0.00,,,0.16,WUHU216HW,2013-09-03 04:12:00,
2013-09-02 20:17:00,51.6,49.0,29.14,WNW,293,0.6,3.3,91,0.00,,,0.16,WUHU216HW,2013-09-03 04:17:00,
2013-09-02 20:22:00,51.8,49.2,29.15,NNW,338,0.6,3.5,91,0.00,,,0.16,WUHU216HW,2013-09-03 04:22:00,
2013-09-02 20:27:00,51.6,49.0,29.16,WNW,293,0.0,3.5,91,0.00,,,0.16,WUHU216HW,2013-09-03 04:27:00,
2013-09-02 20:32:00,51.6,49.0,29.16,West,270,0.0,2.6,91,0.00,,,0.16,WUHU216HW,2013-09-03 04:32:00,
2013-09-02 20:37:00,51.6,49.0,29.16,WNW,293,0.6,2.6,91,0.00,,,0.16,WUHU216HW,2013-09-03 04:37:00,
2013-09-02 20:42:00,51.6,49.0,29.16,WNW,293,4.4,4.4,91,0.00,,,0.16,WUHU216HW,2013-09-03 04:42:00,
2013-09-02 20:47:00,51.6,49.0,29.16,WNW,293,0.0,5.8,91,0.00,,,0.16,WUHU216HW,2013-09-03 04:47:00,
2013-09-02 20:52:00,51.6,49.3,29.17,WNW,293,0.0,5.8,92,0.00,,,0.16,WUHU216HW,2013-09-03 04:52:00,
2013-09-02 20:57:00,51.6,49.3,29.17,West,270,0.0,3.1,92,0.00,,,0.16,WUHU216HW,2013-09-03 04:57:00,
2013-09-02 21:02:00,51.6,49.3,29.16,North,0,0.0,0.6,92,0.00,,,0.16,WUHU216HW,2013-09-03 05:02:00,
2013-09-02 21:07:00,51.6,49.3,29.17,NW,315,0.0,3.3,92,0.00,,,0.16,WUHU216HW,2013-09-03 05:07:00,
2013-09-02 21:12:00,51.6,49.3,29.17,NW,315,0.8,3.3,92,0.00,,,0.16,WUHU216HW,2013-09-03 05:12:00,
2013-09-02 21:17:00,51.4,49.1,29.17,NNW,338,1.1,1.3,92,0.00,,,0.16,WUHU216HW,2013-09-03 05:17:00,
2013-09-02 21:22:00,51.4,49.1,29.18,SW,225,1.3,1.3,92,0.00,,,0.16,WUHU216HW,2013-09-03 05:22:00,
2013-09-02 21:27:00,51.4,49.1,29.18,South,180,0.0,1.3,92,0.00,,,0.16,WUHU216HW,2013-09-03 05:27:00,